createdAt,value
2018-11-04T00:00:21.385Z,8.2
2018-11-04T00:01:21.391Z,8.1
2018-11-04T00:02:21.428Z,8.1
2018-11-04T00:03:21.352Z,8.2
2018-11-04T00:04:21.270Z,8.2
2018-11-04T00:05:21.173Z,8.1
2018-11-04T00:06:21.091Z,8
2018-11-04T00:07:20.998Z,8.1
2018-11-04T00:08:20.917Z,8.1
2018-11-04T00:09:21.259Z,8
2018-11-04T00:10:21.157Z,8
2018-11-04T00:11:21.080Z,8
2018-11-04T00:12:20.996Z,8
2018-11-04T00:13:21.537Z,8
2018-11-04T00:14:21.971Z,8
2018-11-04T00:15:21.879Z,8
2018-11-04T00:16:21.802Z,8
2018-11-04T00:17:21.711Z,8
2018-11-04T00:18:21.612Z,8
2018-11-04T00:19:21.950Z,8
2018-11-04T00:20:22.012Z,8
2018-11-04T00:21:22.268Z,8
2018-11-04T00:22:22.166Z,8
2018-11-04T00:23:22.067Z,8
2018-11-04T00:24:21.969Z,8
2018-11-04T00:25:21.880Z,8
2018-11-04T00:26:21.807Z,8
2018-11-04T00:27:21.900Z,7.9
2018-11-04T00:28:22.226Z,7.9
2018-11-04T00:29:22.600Z,7.9
2018-11-04T00:30:22.532Z,7.9
2018-11-04T00:31:22.465Z,7.9
2018-11-04T00:32:22.372Z,7.9
2018-11-04T00:33:22.286Z,7.9
2018-11-04T00:34:22.220Z,7.9
2018-11-04T00:35:22.152Z,7.8
2018-11-04T00:36:22.075Z,7.8
2018-11-04T00:37:21.981Z,7.8
2018-11-04T00:38:21.902Z,7.8
2018-11-04T00:39:22.246Z,7.8
2018-11-04T00:40:22.152Z,7.8
2018-11-04T00:41:22.072Z,7.8
2018-11-04T00:42:21.968Z,7.8
2018-11-04T00:43:21.882Z,7.8
2018-11-04T00:44:21.835Z,7.8
2018-11-04T00:45:22.073Z,7.8
2018-11-04T00:46:22.582Z,7.8
2018-11-04T00:47:22.542Z,7.8
2018-11-04T00:48:22.612Z,7.8
2018-11-04T00:49:23.295Z,7.8
2018-11-04T00:50:23.213Z,7.8
2018-11-04T00:51:23.138Z,7.8
2018-11-04T00:52:23.051Z,7.8
2018-11-04T00:53:22.962Z,7.8
2018-11-04T00:54:22.865Z,7.8
2018-11-04T00:55:22.774Z,7.8
2018-11-04T00:56:22.737Z,7.8
2018-11-04T00:57:22.645Z,7.8
2018-11-04T00:58:22.542Z,7.8
2018-11-04T00:59:22.875Z,7.8
2018-11-04T01:00:22.779Z,7.8
2018-11-04T01:01:22.796Z,7.7
2018-11-04T01:02:22.843Z,7.7
2018-11-04T01:03:22.769Z,7.8
2018-11-04T01:04:22.690Z,7.8
2018-11-04T01:05:22.584Z,7.8
2018-11-04T01:06:22.502Z,7.7
2018-11-04T01:07:22.432Z,7.7
2018-11-04T01:08:22.348Z,7.7
2018-11-04T01:09:22.782Z,7.7
2018-11-04T01:10:22.689Z,7.8
2018-11-04T01:11:22.617Z,7.7
2018-11-04T01:12:22.526Z,7.8
2018-11-04T01:13:22.432Z,7.7
2018-11-04T01:14:22.362Z,7.7
2018-11-04T01:15:25.280Z,7.7
2018-11-04T01:16:25.198Z,7.6
2018-11-04T01:17:25.094Z,7.6
2018-11-04T01:18:25.009Z,7.6
2018-11-04T01:19:25.348Z,7.5
2018-11-04T01:20:25.248Z,7.6
2018-11-04T01:21:25.148Z,7.6
2018-11-04T01:22:25.056Z,7.6
2018-11-04T01:23:24.963Z,7.6
2018-11-04T01:24:25.241Z,7.6
2018-11-04T01:25:25.547Z,7.6
2018-11-04T01:26:25.452Z,7.6
2018-11-04T01:27:25.356Z,7.6
2018-11-04T01:28:25.278Z,7.6
2018-11-04T01:29:25.613Z,7.6
2018-11-04T01:30:26.077Z,7.6
2018-11-04T01:31:26.758Z,7.6
2018-11-04T01:32:26.687Z,7.6
2018-11-04T01:33:26.609Z,7.6
2018-11-04T01:34:26.524Z,7.6
2018-11-04T01:35:26.601Z,7.6
2018-11-04T01:36:26.759Z,7.6
2018-11-04T01:37:26.670Z,7.6
2018-11-04T01:38:26.576Z,7.6
2018-11-04T01:39:26.928Z,7.6
2018-11-04T01:40:26.854Z,7.6
2018-11-04T01:41:26.763Z,7.6
2018-11-04T01:42:26.665Z,7.7
2018-11-04T01:43:26.596Z,7.7
2018-11-04T01:44:26.505Z,7.7
2018-11-04T01:45:26.430Z,7.7
2018-11-04T01:46:26.335Z,7.7
2018-11-04T01:47:26.254Z,7.7
2018-11-04T01:48:26.183Z,7.7
2018-11-04T01:49:26.581Z,7.7
2018-11-04T01:50:26.477Z,7.7
2018-11-04T01:51:26.380Z,7.7
2018-11-04T01:52:26.274Z,7.7
2018-11-04T01:53:26.179Z,7.7
2018-11-04T01:54:26.104Z,7.7
2018-11-04T01:55:28.515Z,7.7
2018-11-04T01:56:28.426Z,7.7
2018-11-04T01:57:28.325Z,7.7
2018-11-04T01:58:28.228Z,7.6
2018-11-04T01:59:28.600Z,7.6
2018-11-04T02:00:28.496Z,7.6
2018-11-04T02:01:28.401Z,7.6
2018-11-04T02:02:28.299Z,7.6
2018-11-04T02:03:28.205Z,7.6
2018-11-04T02:04:28.117Z,7.6
2018-11-04T02:05:28.029Z,7.6
2018-11-04T02:06:27.943Z,7.7
2018-11-04T02:07:27.843Z,7.6
2018-11-04T02:08:27.745Z,7.6
2018-11-04T02:09:28.087Z,7.7
2018-11-04T02:10:28.016Z,7.6
2018-11-04T02:11:27.917Z,7.6
2018-11-04T02:12:27.821Z,7.6
2018-11-04T02:13:27.740Z,7.6
2018-11-04T02:14:27.637Z,7.6
2018-11-04T02:15:27.542Z,7.6
2018-11-04T02:16:27.450Z,7.6
2018-11-04T02:17:27.336Z,7.6
2018-11-04T02:18:27.247Z,7.6
2018-11-04T02:19:27.614Z,7.5
2018-11-04T02:20:27.515Z,7.5
2018-11-04T02:21:27.441Z,7.5
2018-11-04T02:22:27.354Z,7.5
2018-11-04T02:23:27.268Z,7.5
2018-11-04T02:24:27.178Z,7.6
2018-11-04T02:25:27.122Z,7.5
2018-11-04T02:26:27.035Z,7.5
2018-11-04T02:27:26.932Z,7.4
2018-11-04T02:28:26.845Z,7.5
2018-11-04T02:29:27.182Z,7.5
2018-11-04T02:30:27.101Z,7.4
2018-11-04T02:31:27.024Z,7.5
2018-11-04T02:32:26.938Z,7.5
2018-11-04T02:33:26.856Z,7.5
2018-11-04T02:34:26.765Z,7.5
2018-11-04T02:35:26.691Z,7.5
2018-11-04T02:36:26.605Z,7.5
2018-11-04T02:37:26.521Z,7.5
2018-11-04T02:38:26.419Z,7.5
2018-11-04T02:39:26.779Z,7.5
2018-11-04T02:40:26.699Z,7.4
2018-11-04T02:41:26.642Z,7.4
2018-11-04T02:42:26.577Z,7.5
2018-11-04T02:43:26.495Z,7.4
2018-11-04T02:44:26.407Z,7.4
2018-11-04T02:45:26.343Z,7.4
2018-11-04T02:46:26.259Z,7.4
2018-11-04T02:47:26.194Z,7.4
2018-11-04T02:48:26.137Z,7.4
2018-11-04T02:49:26.501Z,7.4
2018-11-04T02:50:26.404Z,7.4
2018-11-04T02:51:26.315Z,7.5
2018-11-04T02:52:26.217Z,7.5
2018-11-04T02:53:26.134Z,7.5
2018-11-04T02:54:26.053Z,7.5
2018-11-04T02:55:25.947Z,7.5
2018-11-04T02:56:25.911Z,7.4
2018-11-04T02:57:25.821Z,7.4
2018-11-04T02:58:25.749Z,7.4
2018-11-04T02:59:26.155Z,7.4
2018-11-04T03:00:26.075Z,7.4
2018-11-04T03:01:25.982Z,7.5
2018-11-04T03:02:25.897Z,7.5
2018-11-04T03:03:25.808Z,7.4
2018-11-04T03:04:25.819Z,7.4
2018-11-04T03:05:25.759Z,7.4
2018-11-04T03:06:25.680Z,7.4
2018-11-04T03:07:25.592Z,7.4
2018-11-04T03:08:25.503Z,7.5
2018-11-04T03:09:25.880Z,7.5
2018-11-04T03:10:25.821Z,7.5
2018-11-04T03:11:25.745Z,7.5
2018-11-04T03:12:25.651Z,7.5
2018-11-04T03:13:25.566Z,7.5
2018-11-04T03:14:25.496Z,7.5
2018-11-04T03:15:25.414Z,7.5
2018-11-04T03:16:25.308Z,7.5
2018-11-04T03:17:25.222Z,7.5
2018-11-04T03:18:25.150Z,7.5
2018-11-04T03:19:25.527Z,7.5
2018-11-04T03:20:25.430Z,7.5
2018-11-04T03:21:28.555Z,7.5
2018-11-04T03:22:28.465Z,7.5
2018-11-04T03:23:28.397Z,7.5
2018-11-04T03:24:28.422Z,7.5
2018-11-04T03:25:28.374Z,7.5
2018-11-04T03:26:28.292Z,7.5
2018-11-04T03:27:28.207Z,7.5
2018-11-04T03:28:28.162Z,7.5
2018-11-04T03:29:28.497Z,7.5
2018-11-04T03:30:28.423Z,7.4
2018-11-04T03:31:28.364Z,7.4
2018-11-04T03:32:28.293Z,7.4
2018-11-04T03:33:28.207Z,7.4
2018-11-04T03:34:28.109Z,7.4
2018-11-04T03:35:28.098Z,7.4
2018-11-04T03:36:28.014Z,7.4
2018-11-04T03:37:27.930Z,7.4
2018-11-04T03:38:27.857Z,7.5
2018-11-04T03:39:28.242Z,7.5
2018-11-04T03:40:28.160Z,7.5
2018-11-04T03:41:28.069Z,7.5
2018-11-04T03:42:27.984Z,7.5
2018-11-04T03:43:27.889Z,7.5
2018-11-04T03:44:27.799Z,7.5
2018-11-04T03:45:27.723Z,7.4
2018-11-04T03:46:27.642Z,7.4
2018-11-04T03:47:27.546Z,7.4
2018-11-04T03:48:27.467Z,7.4
2018-11-04T03:49:27.904Z,7.4
2018-11-04T03:50:27.836Z,7.4
2018-11-04T03:51:27.738Z,7.4
2018-11-04T03:52:27.633Z,7.4
2018-11-04T03:53:27.536Z,7.4
2018-11-04T03:54:27.436Z,7.5
2018-11-04T03:55:27.374Z,7.5
2018-11-04T03:56:27.275Z,7.5
2018-11-04T03:57:27.189Z,7.5
2018-11-04T03:58:27.094Z,7.5
2018-11-04T03:59:27.441Z,7.5
2018-11-04T04:09:25.551Z,8.1
2018-11-04T04:10:25.460Z,8
2018-11-04T04:11:25.380Z,8
2018-11-04T04:12:25.309Z,8
2018-11-04T04:13:25.205Z,8
2018-11-04T04:14:25.113Z,8
2018-11-04T04:15:25.018Z,7.9
2018-11-04T04:16:24.946Z,7.9
2018-11-04T04:17:24.867Z,7.8
2018-11-04T04:18:24.773Z,7.8
2018-11-04T04:19:25.174Z,7.8
2018-11-04T04:20:25.102Z,7.7
2018-11-04T04:21:25.032Z,7.7
2018-11-04T04:22:24.970Z,7.7
2018-11-04T04:23:24.887Z,7.6
2018-11-04T04:24:24.798Z,7.6
2018-11-04T04:25:24.690Z,7.6
2018-11-04T04:26:24.592Z,7.6
2018-11-04T04:27:24.496Z,7.6
2018-11-04T04:28:24.419Z,7.6
2018-11-04T04:29:24.748Z,7.6
2018-11-04T04:30:24.656Z,7.6
2018-11-04T04:31:24.557Z,7.6
2018-11-04T04:32:24.457Z,7.6
2018-11-04T04:33:24.384Z,7.6
2018-11-04T04:34:24.288Z,7.6
2018-11-04T04:35:24.201Z,7.6
2018-11-04T04:36:24.161Z,7.6
2018-11-04T04:37:24.081Z,7.6
2018-11-04T04:38:23.987Z,7.6
2018-11-04T04:39:24.373Z,7.6
2018-11-04T04:40:24.279Z,7.6
2018-11-04T04:41:24.174Z,7.6
2018-11-04T04:42:24.071Z,7.6
2018-11-04T04:43:23.980Z,7.6
2018-11-04T04:44:23.918Z,7.6
2018-11-04T04:45:23.830Z,7.6
2018-11-04T04:46:23.719Z,7.6
2018-11-04T04:47:23.624Z,7.6
2018-11-04T04:48:23.536Z,7.6
2018-11-04T04:49:23.959Z,7.6
2018-11-04T04:50:23.896Z,7.6
2018-11-04T04:51:23.792Z,7.5
2018-11-04T04:52:23.693Z,7.5
2018-11-04T04:53:23.595Z,7.5
2018-11-04T04:54:23.527Z,7.5
2018-11-04T04:55:23.422Z,7.5
2018-11-04T04:56:23.320Z,7.4
2018-11-04T04:57:23.224Z,7.5
2018-11-04T04:58:23.147Z,7.4
2018-11-04T04:59:23.479Z,7.4
2018-11-04T05:00:23.411Z,7.4
2018-11-04T05:01:23.321Z,7.4
2018-11-04T05:02:23.215Z,7.4
2018-11-04T05:03:23.122Z,7.4
2018-11-04T05:04:23.030Z,7.4
2018-11-04T05:05:22.997Z,7.3
2018-11-04T05:06:22.898Z,7.3
2018-11-04T05:07:22.799Z,7.3
2018-11-04T05:08:22.715Z,7.3
2018-11-04T05:09:23.060Z,7.3
2018-11-04T05:10:22.953Z,7.2
2018-11-04T05:11:22.946Z,7.3
2018-11-04T05:12:22.851Z,7.3
2018-11-04T05:13:22.759Z,7.3
2018-11-04T05:14:22.663Z,7.3
2018-11-04T05:15:22.561Z,7.3
2018-11-04T05:16:22.471Z,7.3
2018-11-04T05:17:22.373Z,7.3
2018-11-04T05:18:22.269Z,7.3
2018-11-04T05:19:22.618Z,7.3
2018-11-04T05:20:22.532Z,7.3
2018-11-04T05:21:22.453Z,7.3
2018-11-04T05:22:22.355Z,7.3
2018-11-04T05:23:22.275Z,7.3
2018-11-04T05:24:22.166Z,7.3
2018-11-04T05:25:22.093Z,7.3
2018-11-04T05:26:22.034Z,7.3
2018-11-04T05:27:21.935Z,7.3
2018-11-04T05:28:21.844Z,7.2
2018-11-04T05:29:22.184Z,7.3
2018-11-04T05:30:22.100Z,7.2
2018-11-04T05:31:22.006Z,7.3
2018-11-04T05:32:21.940Z,7.3
2018-11-04T05:33:21.860Z,7.3
2018-11-04T05:34:21.756Z,7.3
2018-11-04T05:35:21.657Z,7.3
2018-11-04T05:36:21.561Z,7.3
2018-11-04T05:37:21.461Z,7.3
2018-11-04T05:38:21.502Z,7.3
2018-11-04T05:59:18.093Z,8.3
2018-11-04T06:00:18.003Z,8.2
2018-11-04T06:01:17.902Z,8.2
2018-11-04T06:02:17.802Z,8.2
2018-11-04T06:03:17.705Z,8.1
2018-11-04T06:04:17.629Z,8.1
2018-11-04T06:05:17.522Z,8.1
2018-11-04T06:06:17.413Z,8
2018-11-04T06:07:17.320Z,8
2018-11-04T06:08:17.226Z,8
2018-11-04T06:09:17.593Z,7.9
2018-11-04T06:19:15.785Z,8.3
2018-11-04T06:20:15.859Z,8.3
2018-11-04T06:21:15.756Z,8.2
2018-11-04T06:22:15.665Z,8.2
2018-11-04T06:23:15.584Z,8.2
2018-11-04T06:24:15.489Z,8.1
2018-11-04T06:25:15.428Z,8.1
2018-11-04T06:26:15.338Z,8.1
2018-11-04T06:27:15.248Z,8
2018-11-04T06:28:15.171Z,8
2018-11-04T06:29:15.520Z,8
2018-11-04T06:39:13.653Z,8.4
2018-11-04T06:40:13.569Z,8.3
2018-11-04T06:41:13.944Z,8.3
2018-11-04T06:42:14.575Z,8.3
2018-11-04T06:43:14.485Z,8.3
2018-11-04T06:44:14.391Z,8.3
2018-11-04T06:45:14.302Z,8.2
2018-11-04T06:46:14.212Z,8.2
2018-11-04T06:47:14.705Z,8.1
2018-11-04T06:48:15.274Z,8.2
2018-11-04T06:49:15.632Z,8.1
2018-11-04T06:50:15.520Z,8
2018-11-04T06:51:15.426Z,8.1
2018-11-04T06:52:15.347Z,8
2018-11-04T06:53:15.241Z,8
2018-11-04T06:54:15.157Z,7.9
2018-11-04T06:55:15.056Z,7.9
2018-11-04T06:56:14.967Z,7.9
2018-11-04T06:57:14.880Z,7.9
2018-11-04T06:58:14.790Z,7.9
2018-11-04T06:59:15.180Z,7.8
2018-11-04T07:00:15.095Z,7.8
2018-11-04T07:01:15.010Z,7.8
2018-11-04T07:02:14.912Z,7.8
2018-11-04T07:03:14.833Z,7.8
2018-11-04T07:04:14.778Z,7.8
2018-11-04T07:05:14.681Z,7.8
2018-11-04T07:06:14.598Z,7.8
2018-11-04T07:07:14.518Z,7.8
2018-11-04T07:08:14.445Z,7.8
2018-11-04T07:09:14.860Z,7.8
2018-11-04T07:10:14.778Z,7.8
2018-11-04T07:11:14.676Z,7.8
2018-11-04T07:12:14.608Z,7.8
2018-11-04T07:13:14.535Z,7.8
2018-11-04T07:14:14.437Z,7.8
2018-11-04T07:15:14.343Z,7.8
2018-11-04T07:16:14.252Z,7.7
2018-11-04T07:17:14.171Z,7.8
2018-11-04T07:18:14.061Z,7.8
2018-11-04T07:19:14.427Z,7.7
2018-11-04T07:29:12.417Z,8.4
2018-11-04T07:30:12.340Z,8.4
2018-11-04T07:31:12.240Z,8.4
2018-11-04T07:32:12.538Z,8.3
2018-11-04T07:33:13.092Z,8.4
2018-11-04T07:34:13.006Z,8.3
2018-11-04T07:35:12.910Z,8.3
2018-11-04T07:36:12.824Z,8.3
2018-11-04T07:37:12.729Z,8.2
2018-11-04T07:38:12.631Z,8.2
2018-11-04T07:39:12.974Z,8.1
2018-11-04T07:40:12.901Z,8.1
2018-11-04T07:41:12.820Z,8.1
2018-11-04T07:42:12.718Z,8.1
2018-11-04T07:43:12.608Z,8.1
2018-11-04T07:44:12.789Z,8.1
2018-11-04T07:45:13.058Z,8.1
2018-11-04T07:46:12.983Z,8.1
2018-11-04T07:47:12.890Z,8
2018-11-04T07:48:12.803Z,8
2018-11-04T07:49:13.132Z,8
2018-11-04T07:50:13.058Z,8
2018-11-04T07:51:12.952Z,8
2018-11-04T07:52:12.897Z,8
2018-11-04T07:53:12.812Z,7.9
2018-11-04T07:54:12.723Z,8
2018-11-04T07:55:12.625Z,7.9
2018-11-04T07:56:12.536Z,7.9
2018-11-04T07:57:12.458Z,7.9
2018-11-04T07:58:12.375Z,7.9
2018-11-04T07:59:12.712Z,7.9
2018-11-04T08:00:12.623Z,7.9
2018-11-04T08:01:12.593Z,7.9
2018-11-04T08:02:12.518Z,7.9
2018-11-04T08:03:12.432Z,7.9
2018-11-04T08:04:12.818Z,7.9
2018-11-04T08:05:13.302Z,7.9
2018-11-04T08:06:13.195Z,7.9
2018-11-04T08:07:13.132Z,8
2018-11-04T08:08:13.064Z,7.9
2018-11-04T08:09:13.421Z,7.9
2018-11-04T08:10:13.326Z,7.9
2018-11-04T08:11:13.234Z,7.9
2018-11-04T08:12:15.967Z,8
2018-11-04T08:13:15.945Z,7.9
2018-11-04T08:14:15.967Z,8
2018-11-04T08:15:15.881Z,8
2018-11-04T08:16:15.788Z,8
2018-11-04T08:17:15.693Z,8
2018-11-04T08:18:15.617Z,8
2018-11-04T08:19:15.953Z,8
2018-11-04T08:20:15.851Z,8
2018-11-04T08:21:16.030Z,8
2018-11-04T08:22:16.290Z,8
2018-11-04T08:23:16.211Z,8
2018-11-04T08:24:16.129Z,8
2018-11-04T08:25:16.028Z,8
2018-11-04T08:26:15.932Z,8
2018-11-04T08:27:15.838Z,7.9
2018-11-04T08:28:15.746Z,7.9
2018-11-04T08:29:16.119Z,7.9
2018-11-04T08:30:16.032Z,7.9
2018-11-04T08:31:15.959Z,7.9
2018-11-04T08:32:15.878Z,7.9
2018-11-04T08:33:15.769Z,7.9
2018-11-04T08:34:15.686Z,8
2018-11-04T08:35:15.589Z,8
2018-11-04T08:36:15.493Z,8
2018-11-04T08:37:15.408Z,8
2018-11-04T08:38:15.308Z,8.1
2018-11-04T08:39:15.681Z,8
2018-11-04T08:40:15.852Z,8
2018-11-04T08:41:16.226Z,8
2018-11-04T08:42:16.132Z,8
2018-11-04T08:43:16.046Z,8.1
2018-11-04T08:44:15.965Z,8.1
2018-11-04T08:45:15.878Z,8
2018-11-04T08:46:15.783Z,8.1
2018-11-04T08:47:15.678Z,8
2018-11-04T08:48:15.576Z,8
2018-11-04T08:49:15.951Z,8
2018-11-04T08:50:15.853Z,8
2018-11-04T08:51:15.757Z,8
2018-11-04T08:52:15.693Z,8.1
2018-11-04T08:53:15.601Z,8
2018-11-04T08:54:15.522Z,8
2018-11-04T08:55:15.423Z,8
2018-11-04T08:56:15.342Z,8
2018-11-04T08:57:15.257Z,8.1
2018-11-04T08:58:15.156Z,8.1
2018-11-04T08:59:15.513Z,8.1
2018-11-04T09:00:16.085Z,8.1
2018-11-04T09:01:16.728Z,8.1
2018-11-04T09:02:16.628Z,8
2018-11-04T09:03:16.530Z,8.1
2018-11-04T09:04:16.491Z,8.1
2018-11-04T09:05:16.405Z,8.1
2018-11-04T09:06:16.389Z,8.1
2018-11-04T09:07:16.483Z,8.1
2018-11-04T09:08:16.408Z,8.1
2018-11-04T09:09:16.743Z,8.1
2018-11-04T09:10:16.669Z,8
2018-11-04T09:11:16.572Z,8
2018-11-04T09:12:16.486Z,8.1
2018-11-04T09:13:16.400Z,8
2018-11-04T09:14:16.850Z,8.1
2018-11-04T09:15:17.335Z,8
2018-11-04T09:16:17.236Z,8
2018-11-04T09:17:17.188Z,8
2018-11-04T09:18:17.109Z,8.1
2018-11-04T09:19:20.197Z,8
2018-11-04T09:20:20.107Z,8.1
2018-11-04T09:21:20.030Z,8.1
2018-11-04T09:22:20.457Z,8.1
2018-11-04T09:23:21.180Z,8.2
2018-11-04T09:24:21.171Z,8.2
2018-11-04T09:25:21.092Z,8.1
2018-11-04T09:26:21.005Z,8.2
2018-11-04T09:27:20.911Z,8.2
2018-11-04T09:28:20.808Z,8.1
2018-11-04T09:29:21.398Z,8.2
2018-11-04T09:30:22.021Z,8.2
2018-11-04T09:31:21.924Z,8.1
2018-11-04T09:32:21.886Z,8.2
2018-11-04T09:33:21.883Z,8.2
2018-11-04T09:34:22.051Z,8.2
2018-11-04T09:35:22.727Z,8.2
2018-11-04T09:36:24.508Z,8.2
2018-11-04T09:37:24.968Z,8.2
2018-11-04T09:38:24.883Z,8.2
2018-11-04T09:39:25.240Z,8.2
2018-11-04T09:49:23.332Z,8.9
2018-11-04T09:50:23.248Z,8.9
2018-11-04T09:51:23.176Z,8.9
2018-11-04T09:52:23.077Z,8.9
2018-11-04T09:53:22.969Z,8.8
2018-11-04T09:54:22.853Z,8.8
2018-11-04T09:55:22.761Z,8.8
2018-11-04T09:56:22.847Z,8.7
2018-11-04T09:57:23.104Z,8.7
2018-11-04T09:58:23.621Z,8.7
2018-11-04T09:59:24.274Z,8.6
2018-11-04T10:09:22.379Z,9.1
2018-11-04T10:10:22.277Z,9.1
2018-11-04T10:11:22.184Z,9
2018-11-04T10:12:22.090Z,9
2018-11-04T10:13:25.106Z,8.9
2018-11-04T10:14:25.635Z,8.9
2018-11-04T10:15:25.547Z,8.8
2018-11-04T10:16:26.019Z,8.7
2018-11-04T10:17:26.716Z,8.7
2018-11-04T10:18:26.624Z,8.7
2018-11-04T10:19:28.074Z,8.6
2018-11-04T10:20:30.578Z,8.6
2018-11-04T10:21:32.656Z,8.6
2018-11-04T10:22:32.577Z,8.6
2018-11-04T10:23:32.494Z,8.6
2018-11-04T10:24:32.379Z,8.6
2018-11-04T10:25:32.299Z,8.6
2018-11-04T10:26:32.197Z,8.5
2018-11-04T10:27:35.139Z,8.5
2018-11-04T10:28:35.076Z,8.5
2018-11-04T10:29:35.417Z,8.5
2018-11-04T10:30:35.311Z,8.5
2018-11-04T10:31:35.214Z,8.4
2018-11-04T10:32:35.114Z,8.5
2018-11-04T10:33:35.042Z,8.5
2018-11-04T10:34:34.970Z,8.5
2018-11-04T10:35:34.881Z,8.5
2018-11-04T10:36:34.802Z,8.5
2018-11-04T10:37:34.761Z,8.4
2018-11-04T10:38:34.724Z,8.4
2018-11-04T10:39:35.096Z,8.5
2018-11-04T10:40:35.011Z,8.5
2018-11-04T10:41:34.927Z,8.5
2018-11-04T10:42:34.826Z,8.5
2018-11-04T10:43:34.747Z,8.4
2018-11-04T10:44:34.702Z,8.5
2018-11-04T10:45:34.622Z,8.5
2018-11-04T10:46:34.539Z,8.4
2018-11-04T10:47:34.451Z,8.4
2018-11-04T10:48:34.623Z,8.4
2018-11-04T10:49:35.653Z,8.4
2018-11-04T10:50:36.148Z,8.4
2018-11-04T10:51:36.082Z,8.3
2018-11-04T10:52:35.982Z,8.3
2018-11-04T10:53:35.907Z,8.4
2018-11-04T10:54:35.811Z,8.4
2018-11-04T10:55:35.845Z,8.4
2018-11-04T10:56:35.874Z,8.4
2018-11-04T10:57:35.788Z,8.4
2018-11-04T10:58:35.901Z,8.4
2018-11-04T10:59:36.267Z,8.5
2018-11-04T11:00:36.179Z,8.5
2018-11-04T11:01:36.074Z,8.5
2018-11-04T11:02:35.991Z,8.5
2018-11-04T11:03:35.900Z,8.4
2018-11-04T11:04:36.191Z,8.4
2018-11-04T11:05:36.930Z,8.4
2018-11-04T11:06:36.858Z,8.4
2018-11-04T11:07:36.760Z,8.4
2018-11-04T11:08:36.684Z,8.4
2018-11-04T11:09:37.073Z,8.4
2018-11-04T11:10:36.993Z,8.4
2018-11-04T11:11:36.899Z,8.4
2018-11-04T11:12:36.819Z,8.4
2018-11-04T11:13:36.749Z,8.4
2018-11-04T11:14:36.676Z,8.5
2018-11-04T11:15:36.600Z,8.5
2018-11-04T11:16:36.559Z,8.5
2018-11-04T11:17:36.477Z,8.5
2018-11-04T11:18:36.398Z,8.5
2018-11-04T11:19:36.742Z,8.5
2018-11-04T11:29:35.528Z,9.2
2018-11-04T11:30:35.458Z,9.2
2018-11-04T11:31:35.399Z,9.1
2018-11-04T11:32:35.306Z,9.1
2018-11-04T11:33:35.209Z,9.1
2018-11-04T11:34:35.108Z,9
2018-11-04T11:35:35.040Z,9
2018-11-04T11:36:34.951Z,9
2018-11-04T11:37:35.333Z,9
2018-11-04T11:38:35.893Z,9
2018-11-04T11:39:36.257Z,8.9
2018-11-04T11:40:36.157Z,8.9
2018-11-04T11:41:36.089Z,8.9
2018-11-04T11:42:36.016Z,8.9
2018-11-04T11:43:35.934Z,8.9
2018-11-04T11:44:36.022Z,8.9
2018-11-04T11:45:36.018Z,8.8
2018-11-04T11:46:35.935Z,8.8
2018-11-04T11:47:35.860Z,8.8
2018-11-04T11:48:35.869Z,8.7
2018-11-04T11:49:36.215Z,8.7
2018-11-04T11:50:36.120Z,8.6
2018-11-04T11:51:36.031Z,8.6
2018-11-04T11:52:36.346Z,8.6
2018-11-04T11:53:37.040Z,8.6
2018-11-04T11:54:37.053Z,8.6
2018-11-04T11:55:36.973Z,8.6
2018-11-04T11:56:36.913Z,8.6
2018-11-04T11:57:36.842Z,8.7
2018-11-04T11:58:36.765Z,8.6
2018-11-04T11:59:37.437Z,8.6
2018-11-04T12:00:37.361Z,8.6
2018-11-04T12:01:37.271Z,8.7
2018-11-04T12:02:37.194Z,8.6
2018-11-04T12:03:37.112Z,8.7
2018-11-04T12:04:37.011Z,8.7
2018-11-04T12:05:36.948Z,8.6
2018-11-04T12:06:36.921Z,8.6
2018-11-04T12:07:36.830Z,8.6
2018-11-04T12:08:36.767Z,8.6
2018-11-04T12:09:37.131Z,8.6
2018-11-04T12:19:35.407Z,9.1
2018-11-04T12:20:35.317Z,9.1
2018-11-04T12:21:35.219Z,9
2018-11-04T12:22:35.186Z,9.1
2018-11-04T12:23:35.268Z,9
2018-11-04T12:24:35.505Z,9
2018-11-04T12:25:35.436Z,9
2018-11-04T12:26:35.358Z,9
2018-11-04T12:27:35.251Z,9
2018-11-04T12:28:35.170Z,9
2018-11-04T12:29:35.508Z,8.9
2018-11-04T12:30:35.453Z,8.9
2018-11-04T12:31:35.379Z,8.9
2018-11-04T12:32:35.282Z,8.9
2018-11-04T12:33:35.188Z,8.9
2018-11-04T12:34:35.113Z,8.9
2018-11-04T12:35:35.015Z,8.9
2018-11-04T12:36:34.947Z,8.9
2018-11-04T12:37:34.853Z,8.8
2018-11-04T12:38:34.767Z,8.8
2018-11-04T12:39:35.138Z,8.8
2018-11-04T12:49:34.660Z,9.4
2018-11-04T12:50:34.582Z,9.3
2018-11-04T12:51:34.537Z,9.3
2018-11-04T12:52:34.576Z,9.3
2018-11-04T12:53:34.598Z,9.3
2018-11-04T12:54:34.505Z,9.2
2018-11-04T12:55:34.414Z,9.2
2018-11-04T12:56:34.326Z,9.2
2018-11-04T12:57:34.234Z,9.2
2018-11-04T12:58:34.172Z,9.1
2018-11-04T12:59:34.568Z,9
2018-11-04T13:09:33.604Z,9.3
2018-11-04T13:10:33.540Z,9.3
2018-11-04T13:11:33.770Z,9.3
2018-11-04T13:12:34.102Z,9.2
2018-11-04T13:13:34.006Z,9.2
2018-11-04T13:14:33.932Z,9.2
2018-11-04T13:15:33.880Z,9.1
2018-11-04T13:16:33.799Z,9.1
2018-11-04T13:17:36.724Z,9.1
2018-11-04T13:18:36.664Z,9.1
2018-11-04T13:19:37.236Z,9
2018-11-04T13:20:37.148Z,9
2018-11-04T13:21:37.072Z,9
2018-11-04T13:22:36.989Z,9
2018-11-04T13:23:36.911Z,9
2018-11-04T13:24:36.881Z,8.9
2018-11-04T13:25:36.858Z,9
2018-11-04T13:26:36.768Z,8.9
2018-11-04T13:27:39.410Z,8.9
2018-11-04T13:28:39.334Z,8.9
2018-11-04T13:29:39.699Z,8.9
2018-11-04T13:39:37.836Z,9.5
2018-11-04T13:40:37.743Z,9.4
2018-11-04T13:41:37.671Z,9.4
2018-11-04T13:42:37.578Z,9.4
2018-11-04T13:43:37.497Z,9.3
2018-11-04T13:44:37.395Z,9.3
2018-11-04T13:45:37.330Z,9.2
2018-11-04T13:46:37.282Z,9.2
2018-11-04T13:47:37.231Z,9.2
2018-11-04T13:48:37.142Z,9.2
2018-11-04T13:49:37.678Z,9.1
2018-11-04T13:59:36.034Z,9.6
2018-11-04T14:00:35.939Z,9.6
2018-11-04T14:01:35.847Z,9.5
2018-11-04T14:02:35.752Z,9.4
2018-11-04T14:03:35.686Z,9.4
2018-11-04T14:04:35.603Z,9.4
2018-11-04T14:05:35.521Z,9.3
2018-11-04T14:06:35.424Z,9.3
2018-11-04T14:07:35.322Z,9.3
2018-11-04T14:08:35.282Z,9.2
2018-11-04T14:09:35.846Z,9.1
2018-11-04T14:10:35.779Z,9.1
2018-11-04T14:11:35.717Z,9.2
2018-11-04T14:12:35.692Z,9.1
2018-11-04T14:13:35.895Z,9
2018-11-04T14:14:35.854Z,9.1
2018-11-04T14:15:35.763Z,9.1
2018-11-04T14:16:35.683Z,9
2018-11-04T14:17:35.594Z,9
2018-11-04T14:18:38.508Z,9
2018-11-04T14:19:38.890Z,9
2018-11-04T14:20:38.869Z,8.9
2018-11-04T14:21:38.785Z,8.9
2018-11-04T14:22:39.034Z,8.9
2018-11-04T14:23:39.060Z,8.9
2018-11-04T14:24:39.211Z,8.9
2018-11-04T14:25:39.151Z,8.9
2018-11-04T14:26:39.063Z,8.9
2018-11-04T14:27:38.995Z,8.9
2018-11-04T14:28:38.914Z,8.9
2018-11-04T14:39:39.938Z,9.5
2018-11-04T14:40:39.881Z,9.5
2018-11-04T14:41:39.795Z,9.5
2018-11-04T14:42:39.719Z,9.4
2018-11-04T14:43:39.657Z,9.4
2018-11-04T14:44:39.568Z,9.4
2018-11-04T14:45:39.646Z,9.3
2018-11-04T14:46:39.967Z,9.3
2018-11-04T14:47:39.895Z,9.3
2018-11-04T14:48:39.830Z,9.2
2018-11-04T14:49:40.207Z,9.1
2018-11-04T14:59:38.511Z,9.5
2018-11-04T15:00:38.432Z,9.5
2018-11-04T15:01:38.869Z,9.4
2018-11-04T15:02:39.350Z,9.3
2018-11-04T15:03:39.260Z,9.3
2018-11-04T15:04:39.180Z,9.3
2018-11-04T15:05:39.241Z,9.3
2018-11-04T15:06:39.509Z,9.2
2018-11-04T15:07:40.005Z,9.2
2018-11-04T15:08:40.550Z,9.1
2018-11-04T15:09:40.979Z,9
2018-11-04T15:29:40.786Z,9.5
2018-11-04T15:30:40.904Z,9.5
2018-11-04T15:31:40.898Z,9.5
2018-11-04T15:32:40.894Z,9.4
2018-11-04T15:33:41.339Z,9.3
2018-11-04T15:34:42.091Z,9.3
2018-11-04T15:35:43.435Z,9.3
2018-11-04T15:36:43.373Z,9.3
2018-11-04T15:37:43.445Z,9.2
2018-11-04T15:38:43.960Z,9.2
2018-11-04T15:39:45.871Z,9.1
2018-11-04T15:40:46.696Z,9.1
2018-11-04T15:41:46.865Z,9.1
2018-11-04T15:42:46.779Z,9.1
2018-11-04T15:43:46.933Z,9
2018-11-04T15:44:46.843Z,9
2018-11-04T15:45:46.770Z,9
2018-11-04T15:46:46.693Z,9
2018-11-04T15:47:46.764Z,8.9
2018-11-04T15:48:47.484Z,8.9
2018-11-04T15:49:48.305Z,8.9
2018-11-04T15:50:48.393Z,8.9
2018-11-04T15:51:48.318Z,8.9
2018-11-04T15:52:48.371Z,8.8
2018-11-04T15:53:48.335Z,8.8
2018-11-04T15:54:48.643Z,8.8
2018-11-04T15:55:48.848Z,8.8
2018-11-04T15:56:48.932Z,8.8
2018-11-04T15:57:48.934Z,8.8
2018-11-04T15:58:48.839Z,8.7
2018-11-04T15:59:49.224Z,8.7
2018-11-04T16:19:47.735Z,9.5
2018-11-04T16:20:47.652Z,9.4
2018-11-04T16:21:47.576Z,9.4
2018-11-04T16:22:47.511Z,9.3
2018-11-04T16:23:47.436Z,9.3
2018-11-04T16:24:47.343Z,9.2
2018-11-04T16:25:47.268Z,9.2
2018-11-04T16:26:47.241Z,9.1
2018-11-04T16:27:47.166Z,9
2018-11-04T16:28:47.089Z,9
2018-11-04T16:29:47.462Z,9
2018-11-04T16:30:47.376Z,8.9
2018-11-04T16:31:47.429Z,8.9
2018-11-04T16:32:47.509Z,8.9
2018-11-04T16:33:47.435Z,8.9
2018-11-04T16:34:47.363Z,8.9
2018-11-04T16:35:47.284Z,8.8
2018-11-04T16:36:47.185Z,8.8
2018-11-04T16:37:47.541Z,8.7
2018-11-04T16:38:47.694Z,8.6
2018-11-04T16:49:46.485Z,9.2
2018-11-04T16:50:46.404Z,9.2
2018-11-04T16:51:46.320Z,9.2
2018-11-04T16:52:46.243Z,9.1
2018-11-04T16:53:46.189Z,9.1
2018-11-04T16:54:46.101Z,9
2018-11-04T16:55:46.013Z,9
2018-11-04T16:56:45.937Z,9
2018-11-04T16:57:45.848Z,8.9
2018-11-04T16:58:45.781Z,8.9
2018-11-04T16:59:46.167Z,8.8
2018-11-04T17:00:46.091Z,8.7
2018-11-04T17:01:46.009Z,8.7
2018-11-04T17:02:45.921Z,8.7
2018-11-04T17:03:45.841Z,8.7
2018-11-04T17:04:46.640Z,8.6
2018-11-04T17:05:48.047Z,8.6
2018-11-04T17:06:48.571Z,8.6
2018-11-04T17:07:48.487Z,8.5
2018-11-04T17:08:48.396Z,8.5
2018-11-04T17:09:48.790Z,8.5